Terminal Aerodrome Forecast
Issued by NWS Paducah, KY

Home | Current Version | Previous Version | Graphics & Text | Print | Product List | Glossary On
Versions: 1 2 3 4 5 6 7 8 9 10 11 12 13 14 15
043
FTUS43 KPAH 080336 AAA
TAFPAH
TAF AMD
KPAH 080336Z 0804/0824 29010KT P6SM SCT050 BKN100
     FM081300 30010KT P6SM OVC025
     FM081700 31014G22KT 6SM -SHSN OVC040 PROB30 0819/0824 5SM -SHSN
      OVC025=

USA.gov is the U.S. government's official web portal to all federal, state and local government web resources and services.